Venedocia, OH

2:35 PM EDT on September 22, 2014 (GMT -0400)
Darke County | Change Station
CLOSE
Current Station
Airport
Location: Versailles,
Elevation: 1007 ft
Nearby Weather Stations

Elev 1007 ft 40.20 °N, 84.53 °W | Updated 20 minutes ago

Clear
Clear
59 °F
Feels Like 59 °F
N
5
Wind Variable Wind from NE

Today
High -- | Low -- °F
--% Chance of Precip.
Yesterday
High -- | Low -- °F
Precip. -- in
7:25 AM 7:35 PM
Waning Crescent, 2% visible
Pressure 30.23 in
Visibility 10.0 miles
Clouds Clear
Dew Point 39 °F
Humidity 48%
Rainfall 0.00 in
Snow Depth Not available.
UV 7 out of 12
Pollen 4.80 out of 12
Air Quality Not available.
Flu Activity Not available.
METAR KVES 221815Z AUTO 04004KT 10SM CLR 15/04 A3023 RMK AO2

More Conditions Fewer Conditions

Pressure 30.23 in
Visibility 10.0 miles
Clouds Clear
Dew Point 39 °F
Humidity 48%
Rainfall 0.00 in
Snow Depth Not available.
UV 7 out of 12
Pollen 4.80 out of 12
Air Quality Not available.
Flu Activity Not available.
METAR KVES 221815Z AUTO 04004KT 10SM CLR 15/04 A3023 RMK AO2

More Conditions Fewer Conditions

10-Day Weather Forecast

Almanac

Astronomy

Sep. 22, 2014 Rise Set
Actual Time 7:25 AM EDT 7:35 PM EDT
Civil Twilight 6:58 AM EDT 8:02 PM EDT
Nautical Twilight 6:26 AM EDT 8:34 PM EDT
Astronomical Twilight 5:53 AM EDT 9:07 PM EDT
Moon 5:53 AM EDT 6:42 PM EDT
Length of Visible Light 13h 04m
Length of Day
12h 09m
Tomorrow will be 2m 42s shorter.
Waning Crescent, 2% of the Moon is Illuminated
Today
Waning Crescent
Sep 24
New
Oct 1
First Quarter
Oct 8
Full
Oct 15
Last Quarter

Today's Extremes

State Highs State Lows

Community

WunderPhotos

Upload Photos

1,755,507 photos uploaded!

WunderBlogs® & News

Nearby

Snow Depth

Station Depth Elevation
No new snow has been reported.

Earthquake Activity

City Distance Mag. Time & Date
No recent earthquake activity has been reported nearby.
Minimum magnitude displayed is 2.5.

Coastal Water Temperatures

Place Temperature
No Stations Reporting

Nearby Weather Stations